sensor_id;sensor_type;location;lat;lon;timestamp;P1;durP1;ratioP1;P2;durP2;ratioP2
78207;SDS011;67481;50.244;18.288;2023-02-11T00:00:55;70.88;;;27.23;;
78207;SDS011;67481;50.244;18.288;2023-02-11T00:03:41;67.13;;;24.38;;
78207;SDS011;67481;50.244;18.288;2023-02-11T00:06:27;76.45;;;27.63;;
78207;SDS011;67481;50.244;18.288;2023-02-11T00:09:13;70.20;;;23.70;;
78207;SDS011;67481;50.244;18.288;2023-02-11T00:11:59;45.65;;;19.92;;
78207;SDS011;67481;50.244;18.288;2023-02-11T00:14:44;72.60;;;27.48;;
78207;SDS011;67481;50.244;18.288;2023-02-11T00:17:30;71.93;;;25.38;;
78207;SDS011;67481;50.244;18.288;2023-02-11T00:20:16;60.92;;;22.33;;
78207;SDS011;67481;50.244;18.288;2023-02-11T00:23:01;76.22;;;25.52;;
78207;SDS011;67481;50.244;18.288;2023-02-11T00:25:47;68.82;;;25.58;;
78207;SDS011;67481;50.244;18.288;2023-02-11T00:28:33;70.07;;;27.40;;
78207;SDS011;67481;50.244;18.288;2023-02-11T00:31:19;60.58;;;23.38;;
78207;SDS011;67481;50.244;18.288;2023-02-11T00:34:06;59.72;;;23.67;;
78207;SDS011;67481;50.244;18.288;2023-02-11T00:36:52;69.65;;;26.17;;
78207;SDS011;67481;50.244;18.288;2023-02-11T00:39:38;62.55;;;24.10;;
78207;SDS011;67481;50.244;18.288;2023-02-11T00:42:24;54.38;;;23.48;;
78207;SDS011;67481;50.244;18.288;2023-02-11T00:45:09;56.22;;;22.15;;
78207;SDS011;67481;50.244;18.288;2023-02-11T00:47:55;61.45;;;23.45;;
78207;SDS011;67481;50.244;18.288;2023-02-11T00:50:41;62.67;;;25.15;;
78207;SDS011;67481;50.244;18.288;2023-02-11T00:53:26;54.50;;;22.70;;
78207;SDS011;67481;50.244;18.288;2023-02-11T00:56:11;45.00;;;19.83;;
78207;SDS011;67481;50.244;18.288;2023-02-11T00:58:57;53.83;;;23.23;;
78207;SDS011;67481;50.244;18.288;2023-02-11T01:01:46;51.90;;;19.73;;
78207;SDS011;67481;50.244;18.288;2023-02-11T01:04:45;50.50;;;18.67;;
78207;SDS011;67481;50.244;18.288;2023-02-11T01:07:31;56.45;;;20.50;;
78207;SDS011;67481;50.244;18.288;2023-02-11T01:10:16;59.33;;;22.10;;
78207;SDS011;67481;50.244;18.288;2023-02-11T01:13:02;57.17;;;20.58;;
78207;SDS011;67481;50.244;18.288;2023-02-11T01:15:47;57.65;;;21.35;;
78207;SDS011;67481;50.244;18.288;2023-02-11T01:18:35;57.15;;;21.25;;
78207;SDS011;67481;50.244;18.288;2023-02-11T01:21:21;72.80;;;24.67;;
78207;SDS011;67481;50.244;18.288;2023-02-11T01:24:08;65.75;;;22.65;;
78207;SDS011;67481;50.244;18.288;2023-02-11T01:26:54;37.85;;;15.52;;
78207;SDS011;67481;50.244;18.288;2023-02-11T01:29:41;50.20;;;19.25;;
78207;SDS011;67481;50.244;18.288;2023-02-11T01:32:26;57.20;;;20.70;;
78207;SDS011;67481;50.244;18.288;2023-02-11T01:35:12;52.53;;;19.33;;
78207;SDS011;67481;50.244;18.288;2023-02-11T01:37:58;54.08;;;20.92;;
78207;SDS011;67481;50.244;18.288;2023-02-11T01:40:47;36.13;;;15.38;;
78207;SDS011;67481;50.244;18.288;2023-02-11T01:43:44;30.40;;;12.10;;
78207;SDS011;67481;50.244;18.288;2023-02-11T01:46:35;28.40;;;10.30;;
78207;SDS011;67481;50.244;18.288;2023-02-11T01:49:26;51.75;;;20.67;;
78207;SDS011;67481;50.244;18.288;2023-02-11T01:52:31;31.02;;;13.30;;
78207;SDS011;67481;50.244;18.288;2023-02-11T01:55:21;23.65;;;11.38;;
78207;SDS011;67481;50.244;18.288;2023-02-11T01:58:26;57.17;;;21.15;;
78207;SDS011;67481;50.244;18.288;2023-02-11T02:01:15;32.30;;;13.95;;
78207;SDS011;67481;50.244;18.288;2023-02-11T02:04:03;47.88;;;19.48;;
78207;SDS011;67481;50.244;18.288;2023-02-11T02:06:51;29.15;;;12.13;;
78207;SDS011;67481;50.244;18.288;2023-02-11T02:09:41;39.53;;;15.65;;
78207;SDS011;67481;50.244;18.288;2023-02-11T02:12:29;45.60;;;18.40;;
78207;SDS011;67481;50.244;18.288;2023-02-11T02:18:07;51.67;;;19.23;;
78207;SDS011;67481;50.244;18.288;2023-02-11T02:34:09;36.38;;;13.95;;
78207;SDS011;67481;50.244;18.288;2023-02-11T02:37:09;41.50;;;15.10;;
78207;SDS011;67481;50.244;18.288;2023-02-11T02:39:59;29.90;;;12.05;;
78207;SDS011;67481;50.244;18.288;2023-02-11T02:42:48;27.20;;;12.15;;
78207;SDS011;67481;50.244;18.288;2023-02-11T02:45:35;38.70;;;15.35;;
78207;SDS011;67481;50.244;18.288;2023-02-11T02:48:24;40.30;;;16.35;;
78207;SDS011;67481;50.244;18.288;2023-02-11T03:01:12;24.95;;;9.50;;
78207;SDS011;67481;50.244;18.288;2023-02-11T03:04:00;40.58;;;16.08;;
78207;SDS011;67481;50.244;18.288;2023-02-11T03:07:16;28.63;;;12.85;;
78207;SDS011;67481;50.244;18.288;2023-02-11T03:13:10;19.08;;;8.02;;
78207;SDS011;67481;50.244;18.288;2023-02-11T03:15:56;33.15;;;14.15;;
78207;SDS011;67481;50.244;18.288;2023-02-11T03:18:45;35.60;;;13.88;;
78207;SDS011;67481;50.244;18.288;2023-02-11T03:21:34;32.33;;;13.73;;
78207;SDS011;67481;50.244;18.288;2023-02-11T03:24:29;35.03;;;13.18;;
78207;SDS011;67481;50.244;18.288;2023-02-11T03:30:29;33.85;;;14.40;;
78207;SDS011;67481;50.244;18.288;2023-02-11T03:33:26;32.03;;;13.23;;
78207;SDS011;67481;50.244;18.288;2023-02-11T03:36:17;25.83;;;11.10;;
78207;SDS011;67481;50.244;18.288;2023-02-11T03:39:06;19.08;;;8.68;;
78207;SDS011;67481;50.244;18.288;2023-02-11T03:41:54;35.60;;;13.90;;
78207;SDS011;67481;50.244;18.288;2023-02-11T03:44:42;39.45;;;14.05;;
78207;SDS011;67481;50.244;18.288;2023-02-11T03:47:31;15.75;;;7.65;;
78207;SDS011;67481;50.244;18.288;2023-02-11T03:50:20;32.70;;;14.10;;
78207;SDS011;67481;50.244;18.288;2023-02-11T03:53:06;45.33;;;16.25;;
78207;SDS011;67481;50.244;18.288;2023-02-11T03:55:53;31.42;;;12.52;;
78207;SDS011;67481;50.244;18.288;2023-02-11T03:58:39;40.92;;;16.40;;
78207;SDS011;67481;50.244;18.288;2023-02-11T04:01:25;20.27;;;6.43;;
78207;SDS011;67481;50.244;18.288;2023-02-11T04:04:11;38.45;;;14.57;;
78207;SDS011;67481;50.244;18.288;2023-02-11T04:06:56;24.67;;;10.05;;
78207;SDS011;67481;50.244;18.288;2023-02-11T04:09:42;35.13;;;14.50;;
78207;SDS011;67481;50.244;18.288;2023-02-11T04:12:27;33.42;;;13.20;;
78207;SDS011;67481;50.244;18.288;2023-02-11T04:15:12;41.42;;;15.95;;
78207;SDS011;67481;50.244;18.288;2023-02-11T04:17:58;36.42;;;14.80;;
78207;SDS011;67481;50.244;18.288;2023-02-11T04:20:43;17.13;;;7.15;;
78207;SDS011;67481;50.244;18.288;2023-02-11T04:23:29;13.90;;;6.43;;
78207;SDS011;67481;50.244;18.288;2023-02-11T04:26:15;28.92;;;11.18;;
78207;SDS011;67481;50.244;18.288;2023-02-11T04:29:00;43.58;;;17.35;;
78207;SDS011;67481;50.244;18.288;2023-02-11T04:31:45;39.58;;;15.43;;
78207;SDS011;67481;50.244;18.288;2023-02-11T04:34:31;26.30;;;10.25;;
78207;SDS011;67481;50.244;18.288;2023-02-11T04:37:16;30.85;;;13.40;;
78207;SDS011;67481;50.244;18.288;2023-02-11T04:40:02;26.33;;;10.52;;
78207;SDS011;67481;50.244;18.288;2023-02-11T04:42:48;21.48;;;8.82;;
78207;SDS011;67481;50.244;18.288;2023-02-11T04:45:34;38.55;;;15.40;;
78207;SDS011;67481;50.244;18.288;2023-02-11T04:48:19;21.55;;;9.35;;
78207;SDS011;67481;50.244;18.288;2023-02-11T04:51:05;34.13;;;15.02;;
78207;SDS011;67481;50.244;18.288;2023-02-11T04:53:51;20.58;;;8.73;;
78207;SDS011;67481;50.244;18.288;2023-02-11T04:56:36;33.47;;;13.18;;
78207;SDS011;67481;50.244;18.288;2023-02-11T04:59:22;18.52;;;7.20;;
78207;SDS011;67481;50.244;18.288;2023-02-11T05:02:07;18.38;;;8.27;;
78207;SDS011;67481;50.244;18.288;2023-02-11T05:04:53;25.55;;;9.70;;
78207;SDS011;67481;50.244;18.288;2023-02-11T05:07:38;21.48;;;9.05;;
78207;SDS011;67481;50.244;18.288;2023-02-11T05:10:25;28.30;;;12.10;;
78207;SDS011;67481;50.244;18.288;2023-02-11T05:13:11;26.73;;;10.60;;
78207;SDS011;67481;50.244;18.288;2023-02-11T05:15:56;33.85;;;14.23;;
78207;SDS011;67481;50.244;18.288;2023-02-11T05:18:42;21.50;;;8.60;;
78207;SDS011;67481;50.244;18.288;2023-02-11T05:21:29;27.23;;;9.60;;
78207;SDS011;67481;50.244;18.288;2023-02-11T05:24:14;36.70;;;14.88;;
78207;SDS011;67481;50.244;18.288;2023-02-11T05:27:00;36.58;;;13.85;;
78207;SDS011;67481;50.244;18.288;2023-02-11T05:29:46;34.00;;;15.10;;
78207;SDS011;67481;50.244;18.288;2023-02-11T05:32:31;13.23;;;7.15;;
78207;SDS011;67481;50.244;18.288;2023-02-11T05:35:18;26.52;;;10.43;;
78207;SDS011;67481;50.244;18.288;2023-02-11T05:38:03;28.35;;;10.40;;
78207;SDS011;67481;50.244;18.288;2023-02-11T05:40:49;46.00;;;17.95;;
78207;SDS011;67481;50.244;18.288;2023-02-11T05:43:35;39.70;;;16.80;;
78207;SDS011;67481;50.244;18.288;2023-02-11T05:46:20;31.77;;;12.55;;
78207;SDS011;67481;50.244;18.288;2023-02-11T05:49:06;31.67;;;11.70;;
78207;SDS011;67481;50.244;18.288;2023-02-11T05:51:51;16.42;;;6.85;;
78207;SDS011;67481;50.244;18.288;2023-02-11T05:54:37;29.17;;;10.90;;
78207;SDS011;67481;50.244;18.288;2023-02-11T05:57:22;19.95;;;8.50;;
78207;SDS011;67481;50.244;18.288;2023-02-11T06:00:08;28.15;;;11.75;;
78207;SDS011;67481;50.244;18.288;2023-02-11T06:02:57;24.00;;;9.48;;
78207;SDS011;67481;50.244;18.288;2023-02-11T06:05:43;20.73;;;9.07;;
78207;SDS011;67481;50.244;18.288;2023-02-11T06:08:29;27.35;;;10.82;;
78207;SDS011;67481;50.244;18.288;2023-02-11T06:11:14;14.23;;;7.55;;
78207;SDS011;67481;50.244;18.288;2023-02-11T06:14:00;12.50;;;6.53;;
78207;SDS011;67481;50.244;18.288;2023-02-11T06:16:46;18.98;;;7.72;;
78207;SDS011;67481;50.244;18.288;2023-02-11T06:19:31;22.73;;;9.60;;
78207;SDS011;67481;50.244;18.288;2023-02-11T06:22:17;17.98;;;7.90;;
78207;SDS011;67481;50.244;18.288;2023-02-11T06:25:03;25.95;;;11.32;;
78207;SDS011;67481;50.244;18.288;2023-02-11T06:27:48;21.48;;;8.38;;
78207;SDS011;67481;50.244;18.288;2023-02-11T06:30:36;12.05;;;4.93;;
78207;SDS011;67481;50.244;18.288;2023-02-11T06:33:27;27.90;;;11.65;;
78207;SDS011;67481;50.244;18.288;2023-02-11T06:36:13;16.65;;;7.70;;
78207;SDS011;67481;50.244;18.288;2023-02-11T06:39:03;27.67;;;10.73;;
78207;SDS011;67481;50.244;18.288;2023-02-11T06:45:08;28.27;;;10.20;;
78207;SDS011;67481;50.244;18.288;2023-02-11T06:47:55;27.63;;;11.25;;
78207;SDS011;67481;50.244;18.288;2023-02-11T06:50:40;37.22;;;15.55;;
78207;SDS011;67481;50.244;18.288;2023-02-11T06:53:26;25.98;;;10.32;;
78207;SDS011;67481;50.244;18.288;2023-02-11T06:56:12;8.77;;;4.15;;
78207;SDS011;67481;50.244;18.288;2023-02-11T06:59:02;40.28;;;15.82;;
78207;SDS011;67481;50.244;18.288;2023-02-11T07:01:48;21.35;;;6.68;;
78207;SDS011;67481;50.244;18.288;2023-02-11T07:04:34;14.77;;;7.53;;
78207;SDS011;67481;50.244;18.288;2023-02-11T07:07:20;20.40;;;9.40;;
78207;SDS011;67481;50.244;18.288;2023-02-11T07:10:05;30.65;;;12.80;;
78207;SDS011;67481;50.244;18.288;2023-02-11T07:12:53;40.15;;;15.43;;
78207;SDS011;67481;50.244;18.288;2023-02-11T07:15:42;20.25;;;9.23;;
78207;SDS011;67481;50.244;18.288;2023-02-11T07:18:28;14.48;;;7.30;;
78207;SDS011;67481;50.244;18.288;2023-02-11T07:21:16;23.45;;;9.52;;
78207;SDS011;67481;50.244;18.288;2023-02-11T07:24:09;16.00;;;7.68;;
78207;SDS011;67481;50.244;18.288;2023-02-11T07:26:55;18.13;;;7.78;;
78207;SDS011;67481;50.244;18.288;2023-02-11T07:29:41;24.73;;;12.45;;
78207;SDS011;67481;50.244;18.288;2023-02-11T07:32:27;40.72;;;18.92;;
78207;SDS011;67481;50.244;18.288;2023-02-11T07:35:13;49.10;;;18.98;;
78207;SDS011;67481;50.244;18.288;2023-02-11T07:37:59;34.08;;;15.20;;
78207;SDS011;67481;50.244;18.288;2023-02-11T07:40:44;21.67;;;9.88;;
78207;SDS011;67481;50.244;18.288;2023-02-11T07:43:30;36.90;;;15.63;;
78207;SDS011;67481;50.244;18.288;2023-02-11T07:46:17;16.00;;;7.63;;
78207;SDS011;67481;50.244;18.288;2023-02-11T07:49:04;9.10;;;5.00;;
78207;SDS011;67481;50.244;18.288;2023-02-11T07:51:50;20.33;;;8.68;;
78207;SDS011;67481;50.244;18.288;2023-02-11T07:54:35;13.18;;;7.50;;
78207;SDS011;67481;50.244;18.288;2023-02-11T07:57:21;27.52;;;14.18;;
78207;SDS011;67481;50.244;18.288;2023-02-11T08:00:07;13.10;;;6.00;;
78207;SDS011;67481;50.244;18.288;2023-02-11T08:02:56;30.98;;;12.80;;
78207;SDS011;67481;50.244;18.288;2023-02-11T08:05:42;18.05;;;8.45;;
78207;SDS011;67481;50.244;18.288;2023-02-11T08:08:29;40.75;;;16.88;;
78207;SDS011;67481;50.244;18.288;2023-02-11T08:11:19;28.45;;;9.60;;
78207;SDS011;67481;50.244;18.288;2023-02-11T08:14:12;26.58;;;11.63;;
78207;SDS011;67481;50.244;18.288;2023-02-11T08:16:57;17.65;;;8.30;;
78207;SDS011;67481;50.244;18.288;2023-02-11T08:19:46;24.67;;;9.55;;
78207;SDS011;67481;50.244;18.288;2023-02-11T08:22:39;25.20;;;10.27;;
78207;SDS011;67481;50.244;18.288;2023-02-11T08:26:13;32.78;;;13.48;;
78207;SDS011;67481;50.244;18.288;2023-02-11T08:37:56;11.93;;;5.95;;
78207;SDS011;67481;50.244;18.288;2023-02-11T08:40:42;16.80;;;7.30;;
78207;SDS011;67481;50.244;18.288;2023-02-11T08:43:27;38.35;;;13.68;;
78207;SDS011;67481;50.244;18.288;2023-02-11T08:46:14;24.77;;;10.70;;
78207;SDS011;67481;50.244;18.288;2023-02-11T08:49:01;35.55;;;16.15;;
78207;SDS011;67481;50.244;18.288;2023-02-11T08:51:47;29.63;;;13.27;;
78207;SDS011;67481;50.244;18.288;2023-02-11T08:54:34;27.17;;;12.23;;
78207;SDS011;67481;50.244;18.288;2023-02-11T08:57:19;27.50;;;10.75;;
78207;SDS011;67481;50.244;18.288;2023-02-11T09:00:06;19.90;;;8.90;;
78207;SDS011;67481;50.244;18.288;2023-02-11T09:02:52;38.95;;;13.55;;
78207;SDS011;67481;50.244;18.288;2023-02-11T09:05:42;10.75;;;6.03;;
78207;SDS011;67481;50.244;18.288;2023-02-11T09:08:41;49.03;;;18.50;;
78207;SDS011;67481;50.244;18.288;2023-02-11T09:11:32;42.50;;;16.63;;
78207;SDS011;67481;50.244;18.288;2023-02-11T09:14:20;15.77;;;7.78;;
78207;SDS011;67481;50.244;18.288;2023-02-11T09:17:06;15.75;;;9.55;;
78207;SDS011;67481;50.244;18.288;2023-02-11T09:20:01;25.65;;;8.57;;
78207;SDS011;67481;50.244;18.288;2023-02-11T09:22:47;22.40;;;9.07;;
78207;SDS011;67481;50.244;18.288;2023-02-11T09:25:33;44.85;;;16.90;;
78207;SDS011;67481;50.244;18.288;2023-02-11T09:28:18;45.00;;;16.52;;
78207;SDS011;67481;50.244;18.288;2023-02-11T09:31:05;45.95;;;19.33;;
78207;SDS011;67481;50.244;18.288;2023-02-11T09:33:53;44.58;;;16.58;;
78207;SDS011;67481;50.244;18.288;2023-02-11T09:36:40;34.10;;;13.38;;
78207;SDS011;67481;50.244;18.288;2023-02-11T09:39:26;46.03;;;17.13;;
78207;SDS011;67481;50.244;18.288;2023-02-11T09:45:18;36.55;;;14.73;;
78207;SDS011;67481;50.244;18.288;2023-02-11T09:48:13;25.63;;;10.95;;
78207;SDS011;67481;50.244;18.288;2023-02-11T09:51:02;50.65;;;18.35;;
78207;SDS011;67481;50.244;18.288;2023-02-11T09:53:48;38.80;;;13.13;;
78207;SDS011;67481;50.244;18.288;2023-02-11T09:56:35;42.95;;;17.73;;
78207;SDS011;67481;50.244;18.288;2023-02-11T09:59:22;43.72;;;16.70;;
78207;SDS011;67481;50.244;18.288;2023-02-11T10:02:16;14.38;;;6.55;;
78207;SDS011;67481;50.244;18.288;2023-02-11T10:18:44;18.35;;;8.07;;
78207;SDS011;67481;50.244;18.288;2023-02-11T10:24:22;14.38;;;9.00;;
78207;SDS011;67481;50.244;18.288;2023-02-11T10:27:16;14.73;;;7.32;;
78207;SDS011;67481;50.244;18.288;2023-02-11T10:33:14;24.63;;;9.80;;
78207;SDS011;67481;50.244;18.288;2023-02-11T10:36:15;23.67;;;8.43;;
78207;SDS011;67481;50.244;18.288;2023-02-11T10:39:22;28.02;;;13.93;;
78207;SDS011;67481;50.244;18.288;2023-02-11T10:42:11;36.75;;;16.73;;
78207;SDS011;67481;50.244;18.288;2023-02-11T10:45:03;26.05;;;13.50;;
78207;SDS011;67481;50.244;18.288;2023-02-11T10:47:50;25.65;;;10.48;;
78207;SDS011;67481;50.244;18.288;2023-02-11T10:50:37;31.70;;;14.05;;
78207;SDS011;67481;50.244;18.288;2023-02-11T10:53:28;34.13;;;16.38;;
78207;SDS011;67481;50.244;18.288;2023-02-11T10:56:20;26.30;;;14.23;;
78207;SDS011;67481;50.244;18.288;2023-02-11T11:02:39;45.15;;;18.85;;
78207;SDS011;67481;50.244;18.288;2023-02-11T11:05:34;26.50;;;14.13;;
78207;SDS011;67481;50.244;18.288;2023-02-11T11:08:21;43.25;;;16.10;;
78207;SDS011;67481;50.244;18.288;2023-02-11T11:11:07;29.08;;;14.32;;
78207;SDS011;67481;50.244;18.288;2023-02-11T11:13:56;38.70;;;17.85;;
78207;SDS011;67481;50.244;18.288;2023-02-11T11:16:45;9.43;;;5.07;;
78207;SDS011;67481;50.244;18.288;2023-02-11T11:19:37;33.70;;;13.88;;
78207;SDS011;67481;50.244;18.288;2023-02-11T11:22:23;30.83;;;12.48;;
78207;SDS011;67481;50.244;18.288;2023-02-11T11:25:27;26.40;;;10.35;;
78207;SDS011;67481;50.244;18.288;2023-02-11T11:28:23;23.70;;;10.93;;
78207;SDS011;67481;50.244;18.288;2023-02-11T11:31:13;27.40;;;13.02;;
78207;SDS011;67481;50.244;18.288;2023-02-11T11:34:20;31.88;;;15.50;;
78207;SDS011;67481;50.244;18.288;2023-02-11T11:37:35;40.22;;;17.98;;
78207;SDS011;67481;50.244;18.288;2023-02-11T11:40:22;25.60;;;12.55;;
78207;SDS011;67481;50.244;18.288;2023-02-11T11:45:59;40.13;;;19.50;;
78207;SDS011;67481;50.244;18.288;2023-02-11T11:48:45;42.50;;;20.00;;
78207;SDS011;67481;50.244;18.288;2023-02-11T11:51:34;34.97;;;14.70;;
78207;SDS011;67481;50.244;18.288;2023-02-11T11:54:22;44.67;;;19.15;;
78207;SDS011;67481;50.244;18.288;2023-02-11T11:57:10;60.70;;;22.65;;
78207;SDS011;67481;50.244;18.288;2023-02-11T12:18:58;27.13;;;12.88;;
78207;SDS011;67481;50.244;18.288;2023-02-11T12:37:29;27.50;;;10.23;;
78207;SDS011;67481;50.244;18.288;2023-02-11T12:43:56;40.20;;;16.05;;
78207;SDS011;67481;50.244;18.288;2023-02-11T12:46:44;27.92;;;10.45;;
78207;SDS011;67481;50.244;18.288;2023-02-11T12:55:18;33.47;;;14.82;;
78207;SDS011;67481;50.244;18.288;2023-02-11T12:58:10;12.88;;;5.80;;
78207;SDS011;67481;50.244;18.288;2023-02-11T13:01:03;11.75;;;5.35;;
78207;SDS011;67481;50.244;18.288;2023-02-11T13:03:55;14.15;;;3.30;;
78207;SDS011;67481;50.244;18.288;2023-02-11T13:06:45;12.00;;;7.38;;
78207;SDS011;67481;50.244;18.288;2023-02-11T13:09:41;18.10;;;8.60;;
78207;SDS011;67481;50.244;18.288;2023-02-11T13:12:30;12.35;;;6.53;;
78207;SDS011;67481;50.244;18.288;2023-02-11T13:15:35;21.48;;;11.25;;
78207;SDS011;67481;50.244;18.288;2023-02-11T13:21:25;24.33;;;10.32;;
78207;SDS011;67481;50.244;18.288;2023-02-11T13:39:17;15.07;;;6.25;;
78207;SDS011;67481;50.244;18.288;2023-02-11T13:42:04;25.35;;;11.25;;
78207;SDS011;67481;50.244;18.288;2023-02-11T13:44:49;26.13;;;9.65;;
78207;SDS011;67481;50.244;18.288;2023-02-11T13:47:35;7.03;;;3.75;;
78207;SDS011;67481;50.244;18.288;2023-02-11T13:50:22;17.25;;;8.02;;
78207;SDS011;67481;50.244;18.288;2023-02-11T13:53:18;19.55;;;7.22;;
78207;SDS011;67481;50.244;18.288;2023-02-11T14:02:40;14.50;;;8.05;;
78207;SDS011;67481;50.244;18.288;2023-02-11T14:06:09;31.40;;;14.25;;
78207;SDS011;67481;50.244;18.288;2023-02-11T14:12:15;28.13;;;12.30;;
78207;SDS011;67481;50.244;18.288;2023-02-11T14:17:57;12.43;;;5.05;;
78207;SDS011;67481;50.244;18.288;2023-02-11T14:20:42;40.28;;;14.77;;
78207;SDS011;67481;50.244;18.288;2023-02-11T14:23:29;37.67;;;13.82;;
78207;SDS011;67481;50.244;18.288;2023-02-11T14:38:19;12.25;;;6.38;;
78207;SDS011;67481;50.244;18.288;2023-02-11T14:41:24;48.13;;;17.98;;
78207;SDS011;67481;50.244;18.288;2023-02-11T14:44:33;37.55;;;15.13;;
78207;SDS011;67481;50.244;18.288;2023-02-11T14:47:18;26.20;;;10.10;;
78207;SDS011;67481;50.244;18.288;2023-02-11T14:52:54;38.42;;;14.48;;
78207;SDS011;67481;50.244;18.288;2023-02-11T14:55:40;40.28;;;14.73;;
78207;SDS011;67481;50.244;18.288;2023-02-11T14:58:31;27.38;;;11.63;;
78207;SDS011;67481;50.244;18.288;2023-02-11T15:04:21;39.40;;;15.85;;
78207;SDS011;67481;50.244;18.288;2023-02-11T15:07:10;43.15;;;16.88;;
78207;SDS011;67481;50.244;18.288;2023-02-11T15:12:43;40.92;;;14.48;;
78207;SDS011;67481;50.244;18.288;2023-02-11T15:15:32;42.28;;;16.63;;
78207;SDS011;67481;50.244;18.288;2023-02-11T15:18:20;40.97;;;16.35;;
78207;SDS011;67481;50.244;18.288;2023-02-11T15:24:19;32.85;;;12.10;;
78207;SDS011;67481;50.244;18.288;2023-02-11T15:29:58;36.00;;;14.30;;
78207;SDS011;67481;50.244;18.288;2023-02-11T15:32:44;42.58;;;16.20;;
78207;SDS011;67481;50.244;18.288;2023-02-11T15:35:33;23.17;;;11.00;;
78207;SDS011;67481;50.244;18.288;2023-02-11T15:38:21;34.72;;;13.35;;
78207;SDS011;67481;50.244;18.288;2023-02-11T15:41:26;37.35;;;15.15;;
78207;SDS011;67481;50.244;18.288;2023-02-11T15:44:26;42.88;;;15.30;;
78207;SDS011;67481;50.244;18.288;2023-02-11T15:47:19;41.45;;;17.60;;
78207;SDS011;67481;50.244;18.288;2023-02-11T15:50:06;40.53;;;16.77;;
78207;SDS011;67481;50.244;18.288;2023-02-11T15:53:11;34.55;;;14.45;;
78207;SDS011;67481;50.244;18.288;2023-02-11T15:56:09;36.25;;;15.23;;
78207;SDS011;67481;50.244;18.288;2023-02-11T15:58:56;39.70;;;18.08;;
78207;SDS011;67481;50.244;18.288;2023-02-11T16:01:44;40.63;;;15.70;;
78207;SDS011;67481;50.244;18.288;2023-02-11T16:04:31;37.22;;;16.20;;
78207;SDS011;67481;50.244;18.288;2023-02-11T16:10:32;37.45;;;14.73;;
78207;SDS011;67481;50.244;18.288;2023-02-11T16:13:20;44.30;;;16.90;;
78207;SDS011;67481;50.244;18.288;2023-02-11T16:16:15;42.08;;;17.10;;
78207;SDS011;67481;50.244;18.288;2023-02-11T16:19:02;50.72;;;18.77;;
78207;SDS011;67481;50.244;18.288;2023-02-11T16:21:50;43.50;;;16.13;;
78207;SDS011;67481;50.244;18.288;2023-02-11T16:24:37;46.42;;;17.77;;
78207;SDS011;67481;50.244;18.288;2023-02-11T16:27:27;51.92;;;19.35;;
78207;SDS011;67481;50.244;18.288;2023-02-11T16:30:32;54.13;;;18.00;;
78207;SDS011;67481;50.244;18.288;2023-02-11T16:33:22;50.40;;;19.75;;
78207;SDS011;67481;50.244;18.288;2023-02-11T16:36:11;43.47;;;13.85;;
78207;SDS011;67481;50.244;18.288;2023-02-11T16:38:57;54.85;;;19.58;;
78207;SDS011;67481;50.244;18.288;2023-02-11T16:41:43;51.42;;;19.52;;
78207;SDS011;67481;50.244;18.288;2023-02-11T16:44:29;78.07;;;29.50;;
78207;SDS011;67481;50.244;18.288;2023-02-11T16:47:26;49.50;;;18.27;;
78207;SDS011;67481;50.244;18.288;2023-02-11T16:50:22;49.38;;;19.02;;
78207;SDS011;67481;50.244;18.288;2023-02-11T16:53:09;53.60;;;17.58;;
78207;SDS011;67481;50.244;18.288;2023-02-11T16:55:55;38.05;;;17.08;;
78207;SDS011;67481;50.244;18.288;2023-02-11T16:58:41;52.60;;;20.38;;
78207;SDS011;67481;50.244;18.288;2023-02-11T17:01:27;46.30;;;19.33;;
78207;SDS011;67481;50.244;18.288;2023-02-11T17:04:17;52.65;;;18.63;;
78207;SDS011;67481;50.244;18.288;2023-02-11T17:07:04;50.08;;;18.48;;
78207;SDS011;67481;50.244;18.288;2023-02-11T17:09:49;47.92;;;18.05;;
78207;SDS011;67481;50.244;18.288;2023-02-11T17:12:36;62.25;;;23.65;;
78207;SDS011;67481;50.244;18.288;2023-02-11T17:15:22;51.15;;;20.63;;
78207;SDS011;67481;50.244;18.288;2023-02-11T17:18:08;53.45;;;20.30;;
78207;SDS011;67481;50.244;18.288;2023-02-11T17:21:02;48.20;;;19.35;;
78207;SDS011;67481;50.244;18.288;2023-02-11T17:27:39;52.25;;;21.08;;
78207;SDS011;67481;50.244;18.288;2023-02-11T17:30:57;50.53;;;20.30;;
78207;SDS011;67481;50.244;18.288;2023-02-11T17:33:42;55.28;;;21.38;;
78207;SDS011;67481;50.244;18.288;2023-02-11T17:36:28;59.65;;;22.15;;
78207;SDS011;67481;50.244;18.288;2023-02-11T17:39:17;53.50;;;19.85;;
78207;SDS011;67481;50.244;18.288;2023-02-11T17:42:05;57.85;;;20.58;;
78207;SDS011;67481;50.244;18.288;2023-02-11T17:44:51;79.75;;;31.30;;
78207;SDS011;67481;50.244;18.288;2023-02-11T17:47:37;59.53;;;22.55;;
78207;SDS011;67481;50.244;18.288;2023-02-11T17:50:22;60.63;;;21.42;;
78207;SDS011;67481;50.244;18.288;2023-02-11T17:53:08;53.03;;;21.30;;
78207;SDS011;67481;50.244;18.288;2023-02-11T17:55:55;92.07;;;38.08;;
78207;SDS011;67481;50.244;18.288;2023-02-11T17:58:41;55.90;;;22.02;;
78207;SDS011;67481;50.244;18.288;2023-02-11T18:01:27;57.67;;;23.13;;
78207;SDS011;67481;50.244;18.288;2023-02-11T18:04:15;57.22;;;21.23;;
78207;SDS011;67481;50.244;18.288;2023-02-11T18:07:09;96.53;;;31.73;;
78207;SDS011;67481;50.244;18.288;2023-02-11T18:09:54;64.40;;;23.30;;
78207;SDS011;67481;50.244;18.288;2023-02-11T18:12:40;87.20;;;31.45;;
78207;SDS011;67481;50.244;18.288;2023-02-11T18:15:25;59.95;;;23.55;;
78207;SDS011;67481;50.244;18.288;2023-02-11T18:18:11;48.83;;;20.77;;
78207;SDS011;67481;50.244;18.288;2023-02-11T18:20:58;47.47;;;20.30;;
78207;SDS011;67481;50.244;18.288;2023-02-11T18:23:47;57.28;;;19.63;;
78207;SDS011;67481;50.244;18.288;2023-02-11T18:26:34;48.65;;;19.95;;
78207;SDS011;67481;50.244;18.288;2023-02-11T18:29:20;52.40;;;19.98;;
78207;SDS011;67481;50.244;18.288;2023-02-11T18:32:06;49.20;;;19.50;;
78207;SDS011;67481;50.244;18.288;2023-02-11T18:34:52;46.97;;;18.00;;
78207;SDS011;67481;50.244;18.288;2023-02-11T18:37:38;49.83;;;19.08;;
78207;SDS011;67481;50.244;18.288;2023-02-11T18:40:25;42.15;;;16.95;;
78207;SDS011;67481;50.244;18.288;2023-02-11T18:43:10;50.22;;;19.40;;
78207;SDS011;67481;50.244;18.288;2023-02-11T18:46:00;48.00;;;17.73;;
78207;SDS011;67481;50.244;18.288;2023-02-11T18:48:46;28.27;;;11.02;;
78207;SDS011;67481;50.244;18.288;2023-02-11T18:51:37;41.65;;;16.38;;
78207;SDS011;67481;50.244;18.288;2023-02-11T18:54:29;38.22;;;14.63;;
78207;SDS011;67481;50.244;18.288;2023-02-11T18:57:15;46.45;;;16.38;;
78207;SDS011;67481;50.244;18.288;2023-02-11T19:00:02;37.35;;;14.00;;
78207;SDS011;67481;50.244;18.288;2023-02-11T19:02:48;39.80;;;13.93;;
78207;SDS011;67481;50.244;18.288;2023-02-11T19:05:47;38.28;;;13.85;;
78207;SDS011;67481;50.244;18.288;2023-02-11T19:15:27;28.67;;;12.38;;
78207;SDS011;67481;50.244;18.288;2023-02-11T19:18:52;29.65;;;11.55;;
78207;SDS011;67481;50.244;18.288;2023-02-11T19:21:41;30.38;;;11.23;;
78207;SDS011;67481;50.244;18.288;2023-02-11T19:24:30;36.25;;;13.32;;